createdAt,value
2022-11-25T00:00:50.468Z,2.04
2022-11-25T00:03:18.403Z,2.05
2022-11-25T00:05:47.660Z,2.06
2022-11-25T00:08:15.469Z,2.04
2022-11-25T00:10:43.255Z,2.05
2022-11-25T00:13:11.055Z,2.04
2022-11-25T00:15:38.854Z,2.01
2022-11-25T00:18:06.680Z,2.03
2022-11-25T00:20:34.469Z,2.02
2022-11-25T00:23:03.651Z,2.00
2022-11-25T00:25:31.452Z,2.00
2022-11-25T00:27:59.243Z,1.99
2022-11-25T00:30:27.047Z,2.01
2022-11-25T00:32:54.913Z,2.01
2022-11-25T00:35:22.796Z,2.01
2022-11-25T00:37:50.601Z,2.00
2022-11-25T00:40:20.174Z,2.00
2022-11-25T00:43:01.817Z,2.00
2022-11-25T00:45:29.692Z,1.98
2022-11-25T00:47:57.525Z,1.95
2022-11-25T00:50:25.438Z,1.93
2022-11-25T00:52:53.215Z,1.93
2022-11-25T00:55:22.389Z,1.89
2022-11-25T00:57:50.188Z,1.87
2022-11-25T01:00:18.367Z,1.87
2022-11-25T01:02:46.223Z,1.87
2022-11-25T01:05:14.085Z,1.86
2022-11-25T01:07:42.035Z,1.85
2022-11-25T01:10:10.647Z,1.86
2022-11-25T01:12:39.856Z,1.83
2022-11-25T01:15:09.135Z,1.83
2022-11-25T01:17:36.928Z,1.83
2022-11-25T01:20:05.326Z,1.83
2022-11-25T01:22:33.136Z,1.83
2022-11-25T01:25:00.912Z,1.82
2022-11-25T01:27:28.924Z,1.81
2022-11-25T01:29:58.381Z,1.80
2022-11-25T01:32:26.185Z,1.80
2022-11-25T01:34:53.985Z,1.81
2022-11-25T01:37:21.795Z,1.80
2022-11-25T01:39:49.645Z,1.80
2022-11-25T01:42:18.940Z,1.81
2022-11-25T01:45:19.960Z,1.81
2022-11-25T01:47:50.047Z,1.80
2022-11-25T01:50:24.646Z,1.79
2022-11-25T01:52:55.090Z,1.80
2022-11-25T01:55:26.971Z,1.80
2022-11-25T01:58:00.130Z,1.80
2022-11-25T02:00:28.656Z,1.77
2022-11-25T02:03:00.145Z,1.78
2022-11-25T02:05:37.418Z,1.80
2022-11-25T02:08:07.955Z,1.83
2022-11-25T02:10:36.864Z,1.81
2022-11-25T02:13:05.335Z,1.80
2022-11-25T02:15:35.979Z,1.81
2022-11-25T02:18:06.139Z,1.84
2022-11-25T02:20:34.273Z,1.80
2022-11-25T02:23:10.553Z,1.83
2022-11-25T02:25:42.688Z,1.86
2022-11-25T02:28:13.896Z,1.87
2022-11-25T02:30:43.382Z,1.86
2022-11-25T02:33:12.597Z,1.89
2022-11-25T02:35:42.357Z,1.89
2022-11-25T02:38:13.459Z,1.86
2022-11-25T02:40:48.879Z,1.84
2022-11-25T02:43:18.043Z,1.84
2022-11-25T02:45:51.893Z,1.88
2022-11-25T02:48:26.566Z,1.87
2022-11-25T02:51:02.878Z,1.86
2022-11-25T02:53:30.803Z,1.83
2022-11-25T02:56:00.272Z,1.80
2022-11-25T02:58:28.236Z,1.81
2022-11-25T03:00:56.110Z,1.82
2022-11-25T03:03:24.184Z,1.82
2022-11-25T03:05:52.098Z,1.79
2022-11-25T03:08:19.906Z,1.74
2022-11-25T03:10:47.714Z,1.69
2022-11-25T03:13:16.909Z,1.69
2022-11-25T03:15:44.763Z,1.73
2022-11-25T03:18:12.563Z,1.70
2022-11-25T03:20:40.383Z,1.71
2022-11-25T03:23:08.757Z,1.74
2022-11-25T03:25:37.339Z,1.72
2022-11-25T03:28:05.720Z,1.65
2022-11-25T03:30:36.148Z,1.59
2022-11-25T03:33:04.251Z,1.53
2022-11-25T03:35:32.103Z,1.54
2022-11-25T03:37:59.883Z,1.53
2022-11-25T03:40:27.789Z,1.55
2022-11-25T03:42:55.593Z,1.53
2022-11-25T03:45:23.482Z,1.50
2022-11-25T03:47:52.675Z,1.48
2022-11-25T03:50:20.527Z,1.49
2022-11-25T03:52:48.362Z,1.48
2022-11-25T03:55:16.822Z,1.47
2022-11-25T03:57:44.697Z,1.47
2022-11-25T04:00:13.769Z,1.46
2022-11-25T04:02:41.703Z,1.47
2022-11-25T04:05:11.310Z,1.47
2022-11-25T04:07:39.510Z,1.46
2022-11-25T04:10:08.984Z,1.48
2022-11-25T04:12:48.858Z,1.41
2022-11-25T04:15:17.789Z,1.41
2022-11-25T04:17:45.853Z,1.39
2022-11-25T04:20:15.943Z,1.40
2022-11-25T04:22:43.543Z,1.34
2022-11-25T04:25:11.848Z,1.35
2022-11-25T04:27:39.713Z,1.35
2022-11-25T04:30:09.117Z,1.36
2022-11-25T04:32:37.940Z,1.32
2022-11-25T04:35:06.678Z,1.32
2022-11-25T04:37:35.935Z,1.32
2022-11-25T04:40:03.932Z,1.27
2022-11-25T04:42:36.489Z,1.22
2022-11-25T04:45:23.083Z,1.23
2022-11-25T04:47:51.747Z,1.23
2022-11-25T04:50:21.171Z,1.23
2022-11-25T04:52:50.395Z,1.22
2022-11-25T04:55:18.230Z,1.22
2022-11-25T04:57:46.079Z,1.22
2022-11-25T05:00:13.884Z,1.20
2022-11-25T05:02:41.893Z,1.17
2022-11-25T05:05:10.102Z,1.17
2022-11-25T05:07:38.681Z,1.15
2022-11-25T05:10:09.584Z,1.10
2022-11-25T05:12:37.928Z,1.06
2022-11-25T05:15:06.530Z,1.08
2022-11-25T05:17:34.392Z,1.08
2022-11-25T05:20:02.640Z,1.07
2022-11-25T05:22:32.866Z,1.09
2022-11-25T05:25:01.081Z,1.10
2022-11-25T05:27:30.332Z,1.13
2022-11-25T05:29:58.189Z,1.15
2022-11-25T05:32:28.776Z,1.14
2022-11-25T05:34:56.572Z,1.15
2022-11-25T05:37:24.778Z,1.13
2022-11-25T05:39:53.091Z,1.10
2022-11-25T05:42:20.900Z,1.08
2022-11-25T05:44:50.198Z,1.10
2022-11-25T05:47:18.004Z,1.13
2022-11-25T05:49:45.834Z,1.15
2022-11-25T05:52:13.630Z,1.12
2022-11-25T05:54:41.432Z,1.13
2022-11-25T05:57:09.268Z,1.09
2022-11-25T05:59:37.215Z,1.13
2022-11-25T06:02:06.491Z,1.12
2022-11-25T06:04:34.627Z,1.13
2022-11-25T06:07:03.159Z,1.15
2022-11-25T06:09:30.964Z,1.14
2022-11-25T06:11:58.776Z,1.13
2022-11-25T06:14:26.591Z,1.12
2022-11-25T06:16:54.457Z,1.13
2022-11-25T06:19:23.671Z,1.12
2022-11-25T06:21:51.576Z,1.14
2022-11-25T06:24:19.424Z,1.15
2022-11-25T06:26:47.420Z,1.15
2022-11-25T06:29:15.347Z,1.17
2022-11-25T06:31:43.176Z,1.14
2022-11-25T06:34:11.176Z,1.11
2022-11-25T06:36:40.368Z,1.11
2022-11-25T06:39:08.496Z,1.09
2022-11-25T06:41:36.304Z,1.11
2022-11-25T06:44:04.127Z,1.06
2022-11-25T06:46:32.282Z,1.01
2022-11-25T06:49:00.461Z,1.03
2022-11-25T06:51:28.320Z,1.02
2022-11-25T06:53:57.745Z,1.03
2022-11-25T06:56:27.568Z,1.05
2022-11-25T06:58:56.269Z,1.07
2022-11-25T07:01:26.145Z,1.09
2022-11-25T07:03:56.428Z,1.10
2022-11-25T07:06:24.099Z,1.06
2022-11-25T07:08:52.576Z,1.11
2022-11-25T07:11:24.556Z,1.14
2022-11-25T07:13:54.368Z,1.15
2022-11-25T07:16:22.509Z,1.17
2022-11-25T07:18:50.398Z,1.18
2022-11-25T07:21:21.199Z,1.18
2022-11-25T07:23:49.431Z,1.15
2022-11-25T07:26:19.372Z,1.12
2022-11-25T07:28:49.651Z,1.14
2022-11-25T07:31:28.538Z,1.09
2022-11-25T07:34:00.810Z,1.11
2022-11-25T07:36:29.866Z,1.13
2022-11-25T07:38:59.178Z,1.12
2022-11-25T07:41:28.386Z,1.12
2022-11-25T07:43:59.061Z,1.09
2022-11-25T07:46:30.721Z,1.12
2022-11-25T07:49:00.693Z,1.13
2022-11-25T07:51:31.839Z,1.14
2022-11-25T07:54:01.063Z,1.16
2022-11-25T07:56:30.098Z,1.17
2022-11-25T07:58:59.288Z,1.20
2022-11-25T08:01:27.430Z,1.20
2022-11-25T08:03:55.929Z,1.22
2022-11-25T08:06:25.352Z,1.26
2022-11-25T08:08:55.615Z,1.24
2022-11-25T08:11:25.870Z,1.24
2022-11-25T08:13:53.893Z,1.25
2022-11-25T08:16:27.719Z,1.25
2022-11-25T08:18:56.200Z,1.28
2022-11-25T08:21:24.178Z,1.30
2022-11-25T08:23:52.634Z,1.30
2022-11-25T08:26:23.391Z,1.35
2022-11-25T08:28:51.816Z,1.38
2022-11-25T08:31:22.181Z,1.39
2022-11-25T08:33:51.842Z,1.39
2022-11-25T08:36:20.529Z,1.44
2022-11-25T08:38:50.116Z,1.45
2022-11-25T08:41:21.632Z,1.48
2022-11-25T08:43:49.993Z,1.50
2022-11-25T08:46:19.781Z,1.54
2022-11-25T08:48:47.894Z,1.57
2022-11-25T08:51:19.552Z,1.56
2022-11-25T08:53:48.160Z,1.57
2022-11-25T08:56:16.213Z,1.62
2022-11-25T08:58:44.173Z,1.64
2022-11-25T09:01:14.361Z,1.67
2022-11-25T09:03:44.796Z,1.69
2022-11-25T09:06:13.681Z,1.68
2022-11-25T09:08:44.564Z,1.69
2022-11-25T09:11:12.637Z,1.70
2022-11-25T09:13:40.959Z,1.70
2022-11-25T09:16:09.682Z,1.70
2022-11-25T09:18:38.164Z,1.71
2022-11-25T09:21:10.886Z,1.73
2022-11-25T09:23:39.022Z,1.73
2022-11-25T09:26:09.277Z,1.72
2022-11-25T09:28:37.751Z,1.74
2022-11-25T09:31:09.888Z,1.74
2022-11-25T09:33:38.511Z,1.75
2022-11-25T09:36:07.114Z,1.77
2022-11-25T09:38:37.691Z,1.77
2022-11-25T09:41:42.482Z,1.77
2022-11-25T09:44:37.980Z,1.78
2022-11-25T09:47:15.509Z,1.79
2022-11-25T09:50:01.377Z,1.79
2022-11-25T09:52:38.682Z,1.77
2022-11-25T09:55:10.266Z,1.77
2022-11-25T09:57:59.388Z,1.79
2022-11-25T10:00:37.318Z,1.81
2022-11-25T10:03:14.092Z,1.80
2022-11-25T10:05:47.396Z,1.80
2022-11-25T10:08:20.616Z,1.75
2022-11-25T10:10:51.094Z,1.74
2022-11-25T10:13:26.115Z,1.78
2022-11-25T10:15:58.507Z,1.76
2022-11-25T10:18:32.063Z,1.78
2022-11-25T10:21:00.281Z,1.79
2022-11-25T10:23:33.737Z,1.83
2022-11-25T10:26:11.949Z,1.88
2022-11-25T10:28:47.036Z,1.92
2022-11-25T10:31:18.742Z,1.94
2022-11-25T10:33:48.689Z,1.97
2022-11-25T10:36:19.289Z,1.99
2022-11-25T10:38:56.317Z,1.99
2022-11-25T10:41:28.142Z,1.98
2022-11-25T10:43:58.006Z,1.99
2022-11-25T10:46:56.669Z,2.02
2022-11-25T10:49:29.330Z,2.04
2022-11-25T10:51:58.124Z,2.07
2022-11-25T10:54:28.264Z,2.08
2022-11-25T10:56:57.706Z,2.07
2022-11-25T10:59:31.064Z,2.09
2022-11-25T11:02:20.526Z,2.10
2022-11-25T11:04:58.147Z,2.05
2022-11-25T11:07:27.677Z,2.07
2022-11-25T11:09:55.743Z,2.10
2022-11-25T11:12:25.721Z,2.10
2022-11-25T11:15:12.525Z,2.13
2022-11-25T11:17:40.825Z,2.14
2022-11-25T11:20:22.801Z,2.15
2022-11-25T11:22:56.377Z,2.18
2022-11-25T11:25:33.494Z,2.22
2022-11-25T11:28:02.620Z,2.21
2022-11-25T11:30:33.956Z,2.23
2022-11-25T11:33:05.683Z,2.22
2022-11-25T11:35:47.741Z,2.24
2022-11-25T11:38:27.516Z,2.25
2022-11-25T11:43:54.549Z,2.25
2022-11-25T11:46:32.490Z,2.25
2022-11-25T11:49:15.224Z,2.30
2022-11-25T11:51:52.141Z,2.33
2022-11-25T11:54:32.493Z,2.36
2022-11-25T11:57:03.683Z,2.37
2022-11-25T11:59:48.970Z,2.36
2022-11-25T12:02:25.558Z,2.38
2022-11-25T12:05:01.253Z,2.40
2022-11-25T12:07:35.586Z,2.40
2022-11-25T12:10:10.341Z,2.37
2022-11-25T12:12:41.916Z,2.40
2022-11-25T12:15:20.260Z,2.42
2022-11-25T12:17:54.234Z,2.44
2022-11-25T12:20:34.173Z,2.43
2022-11-25T12:23:06.988Z,2.42
2022-11-25T12:25:38.251Z,2.43
2022-11-25T12:28:11.323Z,2.45
2022-11-25T12:30:52.195Z,2.45
2022-11-25T12:33:27.141Z,2.47
2022-11-25T12:36:03.471Z,2.49
2022-11-25T12:38:39.283Z,2.52
2022-11-25T12:41:18.886Z,2.52
2022-11-25T12:43:50.672Z,2.53
2022-11-25T12:46:29.699Z,2.52
2022-11-25T12:49:00.016Z,2.53
2022-11-25T12:51:45.269Z,2.52
2022-11-25T12:54:25.872Z,2.53
2022-11-25T12:57:20.332Z,2.53
2022-11-25T13:00:33.289Z,2.52
2022-11-25T13:03:20.270Z,2.50
2022-11-25T13:06:30.925Z,2.47
2022-11-25T13:09:05.633Z,2.49
2022-11-25T13:11:55.732Z,2.49
2022-11-25T13:14:26.993Z,2.44
2022-11-25T13:16:57.397Z,2.48
2022-11-25T13:19:26.948Z,2.51
2022-11-25T13:22:02.788Z,2.51
2022-11-25T13:24:35.686Z,2.48
2022-11-25T13:27:05.281Z,2.48
2022-11-25T13:30:04.202Z,2.50
2022-11-25T13:32:34.724Z,2.49
2022-11-25T13:35:35.068Z,2.48
2022-11-25T13:38:22.764Z,2.48
2022-11-25T13:40:58.844Z,2.48
2022-11-25T13:43:26.878Z,2.49
2022-11-25T13:45:56.326Z,2.50
2022-11-25T13:48:26.849Z,2.51
2022-11-25T13:51:18.118Z,2.52
2022-11-25T13:53:54.403Z,2.50
2022-11-25T13:56:29.454Z,2.51
2022-11-25T13:59:21.571Z,2.50
2022-11-25T14:01:55.762Z,2.49
2022-11-25T14:04:41.593Z,2.51
2022-11-25T14:07:24.313Z,2.50
2022-11-25T14:10:14.117Z,2.48
2022-11-25T14:13:03.059Z,2.47
2022-11-25T14:15:39.396Z,2.47
2022-11-25T14:19:12.443Z,2.47
2022-11-25T14:21:45.401Z,2.47
2022-11-25T14:24:28.791Z,2.46
2022-11-25T14:26:59.459Z,2.45
2022-11-25T14:29:31.494Z,2.45
2022-11-25T14:32:03.666Z,2.41
2022-11-25T14:34:35.421Z,2.38
2022-11-25T14:37:13.594Z,2.38
2022-11-25T14:39:50.278Z,2.38
2022-11-25T14:42:22.292Z,2.39
2022-11-25T14:44:51.840Z,2.39
2022-11-25T14:47:23.776Z,2.38
2022-11-25T14:52:43.887Z,2.39
2022-11-25T14:55:13.071Z,2.37
2022-11-25T14:57:46.076Z,2.38
2022-11-25T15:00:16.720Z,2.41
2022-11-25T15:02:57.383Z,2.38
2022-11-25T15:05:27.387Z,2.39
2022-11-25T15:08:00.310Z,2.36
2022-11-25T15:10:39.487Z,2.36
2022-11-25T15:13:15.131Z,2.35
2022-11-25T15:15:46.652Z,2.37
2022-11-25T15:18:20.533Z,2.37
2022-11-25T15:20:51.044Z,2.36
2022-11-25T15:23:27.955Z,2.35
2022-11-25T15:25:57.777Z,2.35
2022-11-25T15:28:27.052Z,2.35
2022-11-25T15:30:59.303Z,2.36
2022-11-25T15:33:28.811Z,2.36
2022-11-25T15:35:57.164Z,2.36
2022-11-25T15:38:42.111Z,2.33
2022-11-25T15:41:33.185Z,2.32
2022-11-25T15:44:05.694Z,2.29
2022-11-25T15:46:36.673Z,2.32
2022-11-25T15:49:08.743Z,2.32
2022-11-25T15:51:42.496Z,2.31
2022-11-25T15:54:20.484Z,2.32
2022-11-25T15:56:50.653Z,2.34
2022-11-25T15:59:51.289Z,2.30
2022-11-25T16:02:54.762Z,2.29
2022-11-25T16:05:38.602Z,2.27
2022-11-25T16:08:29.937Z,2.30
2022-11-25T16:11:00.554Z,2.29
2022-11-25T16:13:30.553Z,2.29
2022-11-25T16:16:01.327Z,2.29
2022-11-25T16:18:40.792Z,2.29
2022-11-25T16:21:12.778Z,2.29
2022-11-25T16:23:45.112Z,2.30
2022-11-25T16:26:18.181Z,2.27
2022-11-25T16:28:54.271Z,2.25
2022-11-25T16:31:22.412Z,2.24
2022-11-25T16:33:52.033Z,2.23
2022-11-25T16:36:19.826Z,2.25
2022-11-25T16:38:53.009Z,2.25
2022-11-25T16:41:23.627Z,2.26
2022-11-25T16:43:51.557Z,2.25
2022-11-25T16:46:21.170Z,2.25
2022-11-25T16:48:49.102Z,2.20
2022-11-25T16:51:20.840Z,2.21
2022-11-25T16:53:49.265Z,2.18
2022-11-25T16:56:22.480Z,2.17
2022-11-25T16:58:50.284Z,2.17
2022-11-25T17:01:27.590Z,2.21
2022-11-25T17:03:55.467Z,2.21
2022-11-25T17:06:27.273Z,2.21
2022-11-25T17:08:55.397Z,2.21
2022-11-25T17:11:29.319Z,2.20
2022-11-25T17:13:59.521Z,2.18
2022-11-25T17:16:28.890Z,2.14
2022-11-25T17:18:58.525Z,2.16
2022-11-25T17:21:28.961Z,2.16
2022-11-25T17:24:01.155Z,2.18
2022-11-25T17:26:37.002Z,2.20
2022-11-25T17:29:07.595Z,2.21
2022-11-25T17:31:38.645Z,2.18
2022-11-25T17:34:06.708Z,2.20
2022-11-25T17:36:35.885Z,2.22
2022-11-25T17:39:03.845Z,2.19
2022-11-25T17:41:36.746Z,2.21
2022-11-25T17:44:07.449Z,2.21
2022-11-25T17:46:35.285Z,2.20
2022-11-25T17:49:03.133Z,2.20
2022-11-25T17:51:30.957Z,2.21
2022-11-25T17:54:00.107Z,2.21
2022-11-25T17:56:32.384Z,2.21
2022-11-25T17:59:03.806Z,2.20
2022-11-25T18:01:32.033Z,2.20
2022-11-25T18:03:59.997Z,2.21
2022-11-25T18:06:27.876Z,2.20
2022-11-25T18:08:55.688Z,2.20
2022-11-25T18:11:25.092Z,2.21
2022-11-25T18:13:53.009Z,2.21
2022-11-25T18:16:23.970Z,2.23
2022-11-25T18:18:51.824Z,2.24
2022-11-25T18:21:20.036Z,2.25
2022-11-25T18:23:47.885Z,2.26
2022-11-25T18:26:15.851Z,2.26
2022-11-25T18:28:45.449Z,2.28
2022-11-25T18:31:13.974Z,2.28
2022-11-25T18:33:41.880Z,2.28
2022-11-25T18:36:14.177Z,2.28
2022-11-25T18:38:42.105Z,2.28
2022-11-25T18:41:21.312Z,2.30
2022-11-25T18:43:51.717Z,2.29
2022-11-25T18:46:19.719Z,2.30
2022-11-25T18:48:47.588Z,2.31
2022-11-25T18:51:16.095Z,2.30
2022-11-25T18:53:43.896Z,2.31
2022-11-25T18:56:17.731Z,2.32
2022-11-25T18:58:49.914Z,2.31
2022-11-25T19:01:23.720Z,2.27
2022-11-25T19:03:53.824Z,2.28
2022-11-25T19:06:22.241Z,2.28
2022-11-25T19:08:52.417Z,2.28
2022-11-25T19:11:20.732Z,2.27
2022-11-25T19:13:53.142Z,2.30
2022-11-25T19:16:23.720Z,2.30
2022-11-25T19:18:51.664Z,2.31
2022-11-25T19:21:22.032Z,2.32
2022-11-25T19:23:49.916Z,2.32
2022-11-25T19:26:23.116Z,2.33
2022-11-25T19:28:55.956Z,2.33
2022-11-25T19:31:25.427Z,2.33
2022-11-25T19:33:53.314Z,2.33
2022-11-25T19:36:25.567Z,2.34
2022-11-25T19:38:54.033Z,2.36
2022-11-25T19:41:22.118Z,2.35
2022-11-25T19:43:50.000Z,2.36
2022-11-25T19:46:30.136Z,2.34
2022-11-25T19:49:06.546Z,2.35
2022-11-25T19:51:36.073Z,2.36
2022-11-25T19:54:03.875Z,2.39
2022-11-25T19:56:31.652Z,2.39
2022-11-25T19:58:59.436Z,2.41
2022-11-25T20:01:34.698Z,2.41
2022-11-25T20:04:03.733Z,2.42
2022-11-25T20:06:31.695Z,2.42
2022-11-25T20:09:06.463Z,2.43
2022-11-25T20:11:36.825Z,2.43
2022-11-25T20:14:05.067Z,2.44
2022-11-25T20:16:37.121Z,2.45
2022-11-25T20:19:07.015Z,2.45
2022-11-25T20:21:38.052Z,2.45
2022-11-25T20:24:13.077Z,2.46
2022-11-25T20:26:45.919Z,2.47
2022-11-25T20:29:16.921Z,2.49
2022-11-25T20:31:46.633Z,2.48
2022-11-25T20:34:14.649Z,2.47
2022-11-25T20:36:44.089Z,2.48
2022-11-25T20:39:18.384Z,2.46
2022-11-25T20:41:50.626Z,2.46
2022-11-25T20:44:19.885Z,2.47
2022-11-25T20:46:49.260Z,2.47
2022-11-25T20:49:22.962Z,2.47
2022-11-25T20:51:50.957Z,2.48
2022-11-25T20:54:18.840Z,2.49
2022-11-25T20:56:46.723Z,2.47
2022-11-25T20:59:21.665Z,2.47
2022-11-25T21:01:51.530Z,2.48
2022-11-25T21:04:19.543Z,2.47
2022-11-25T21:06:47.742Z,2.46
2022-11-25T21:09:20.169Z,2.48
2022-11-25T21:11:50.297Z,2.47
2022-11-25T21:14:20.396Z,2.45
2022-11-25T21:16:48.659Z,2.42
2022-11-25T21:19:17.936Z,2.42
2022-11-25T21:21:47.908Z,2.45
2022-11-25T21:24:25.620Z,2.45
2022-11-25T21:26:53.995Z,2.46
2022-11-25T21:29:22.011Z,2.47
2022-11-25T21:31:50.002Z,2.47
2022-11-25T21:34:19.952Z,2.47
2022-11-25T21:36:50.665Z,2.47
2022-11-25T21:39:29.046Z,2.48
2022-11-25T21:41:59.457Z,2.49
2022-11-25T21:44:31.631Z,2.50
2022-11-25T21:46:59.577Z,2.50
2022-11-25T21:49:29.021Z,2.52
2022-11-25T21:51:56.855Z,2.52
2022-11-25T21:54:24.698Z,2.52
2022-11-25T21:56:53.080Z,2.53
2022-11-25T21:59:21.752Z,2.54
2022-11-25T22:01:49.988Z,2.55
2022-11-25T22:04:20.476Z,2.55
2022-11-25T22:06:51.027Z,2.54
2022-11-25T22:09:19.569Z,2.54
2022-11-25T22:11:50.306Z,2.57
2022-11-25T22:14:27.679Z,2.58
2022-11-25T22:16:56.356Z,2.58
2022-11-25T22:19:27.169Z,2.57
2022-11-25T22:21:57.017Z,2.58
2022-11-25T22:24:24.851Z,2.56
2022-11-25T22:26:57.670Z,2.56
2022-11-25T22:29:33.254Z,2.56
2022-11-25T22:32:01.133Z,2.57
2022-11-25T22:34:29.069Z,2.59
2022-11-25T22:36:58.521Z,2.59
2022-11-25T22:39:27.698Z,2.58
2022-11-25T22:41:57.612Z,2.59
2022-11-25T22:44:30.488Z,2.58
2022-11-25T22:46:58.469Z,2.58
2022-11-25T22:49:40.375Z,2.59
2022-11-25T22:52:18.428Z,2.59
2022-11-25T22:54:46.275Z,2.59
2022-11-25T22:57:14.134Z,2.61
2022-11-25T22:59:42.050Z,2.61
2022-11-25T23:02:16.510Z,2.62
2022-11-25T23:04:54.742Z,2.61
2022-11-25T23:07:24.939Z,2.60
2022-11-25T23:09:53.415Z,2.59
2022-11-25T23:12:21.519Z,2.59
2022-11-25T23:14:49.308Z,2.61
2022-11-25T23:17:20.386Z,2.61
2022-11-25T23:19:48.379Z,2.60
2022-11-25T23:22:16.427Z,2.60
2022-11-25T23:24:48.241Z,2.62
2022-11-25T23:27:16.979Z,2.60
2022-11-25T23:29:45.113Z,2.62
2022-11-25T23:32:18.861Z,2.62
2022-11-25T23:34:47.316Z,2.62
2022-11-25T23:37:15.284Z,2.62
2022-11-25T23:39:43.176Z,2.63
2022-11-25T23:42:17.993Z,2.62
2022-11-25T23:44:46.306Z,2.63
2022-11-25T23:47:19.601Z,2.63
2022-11-25T23:49:50.057Z,2.61
2022-11-25T23:52:21.085Z,2.61
2022-11-25T23:54:50.791Z,2.62
2022-11-25T23:57:22.448Z,2.61
2022-11-25T23:59:51.455Z,2.61
